Carol City, Florida
Current Conditions -  °F | °C
As of 2:53 PM on Saturday 25 Oct 2014 (Local Time) from KOPF Reporting Station
Scattered Clouds Scattered Clouds  
Wind Chill: 84°   Ceiling: Unl
Heat Index: 84°   Visibility: 10mi
Dew Point: 61°   Wind: 9mph
Humidity: 46%   Direction: 350°N
Pressure: 29.88"   Gusts: NA
Location:  25.94°N, 80.25°W
Report Text: KOPF 251853Z 35008KT 330V030 10SM SCT050 29/16 A2988 RMK AO2 SLP119 T02890161 $
Loading
Personal Weather Stations






























Interactive Weather Map
Tropical Storm Tracking
New forecast layout! Learn more

10-Day Weather Forecast

Advertisements
Track Severe Weather on mobile